sensor_id;sensor_type;location;lat;lon;timestamp;temperature;humidity
66343;DHT22;53144;51.524;5.080;2024-03-02T00:00:07;6.90;95.75
66343;DHT22;53144;51.524;5.080;2024-03-02T00:02:42;6.76;96.64
66343;DHT22;53144;51.524;5.080;2024-03-02T00:05:11;6.79;96.62
66343;DHT22;53144;51.524;5.080;2024-03-02T00:07:37;6.79;96.87
66343;DHT22;53144;51.524;5.080;2024-03-02T00:10:08;6.73;97.13
66343;DHT22;53144;51.524;5.080;2024-03-02T00:12:36;6.73;97.14
66343;DHT22;53144;51.524;5.080;2024-03-02T00:15:05;6.73;97.26
66343;DHT22;53144;51.524;5.080;2024-03-02T00:17:32;6.71;97.26
66343;DHT22;53144;51.524;5.080;2024-03-02T00:19:58;6.77;97.27
66343;DHT22;53144;51.524;5.080;2024-03-02T00:22:23;6.73;97.59
66343;DHT22;53144;51.524;5.080;2024-03-02T00:24:48;6.70;97.68
66343;DHT22;53144;51.524;5.080;2024-03-02T00:27:15;6.69;97.46
66343;DHT22;53144;51.524;5.080;2024-03-02T00:29:42;6.70;97.53
66343;DHT22;53144;51.524;5.080;2024-03-02T00:32:16;6.69;97.64
66343;DHT22;53144;51.524;5.080;2024-03-02T00:34:41;6.74;97.09
66343;DHT22;53144;51.524;5.080;2024-03-02T00:37:07;6.74;97.54
66343;DHT22;53144;51.524;5.080;2024-03-02T00:39:32;6.77;97.24
66343;DHT22;53144;51.524;5.080;2024-03-02T00:41:58;6.76;97.11
66343;DHT22;53144;51.524;5.080;2024-03-02T00:44:25;6.70;97.28
66343;DHT22;53144;51.524;5.080;2024-03-02T00:46:52;6.71;97.11
66343;DHT22;53144;51.524;5.080;2024-03-02T00:49:21;6.70;97.06
66343;DHT22;53144;51.524;5.080;2024-03-02T00:51:49;6.67;97.58
66343;DHT22;53144;51.524;5.080;2024-03-02T00:54:22;6.71;97.35
66343;DHT22;53144;51.524;5.080;2024-03-02T00:56:49;6.70;97.40
66343;DHT22;53144;51.524;5.080;2024-03-02T00:59:15;6.70;97.24
66343;DHT22;53144;51.524;5.080;2024-03-02T01:01:40;6.67;97.16
66343;DHT22;53144;51.524;5.080;2024-03-02T01:04:07;6.64;97.19
66343;DHT22;53144;51.524;5.080;2024-03-02T01:06:32;6.57;97.47
66343;DHT22;53144;51.524;5.080;2024-03-02T01:08:59;6.57;97.32
66343;DHT22;53144;51.524;5.080;2024-03-02T01:11:24;6.56;97.78
66343;DHT22;53144;51.524;5.080;2024-03-02T01:13:49;6.49;97.86
66343;DHT22;53144;51.524;5.080;2024-03-02T01:16:15;6.44;97.89
66343;DHT22;53144;51.524;5.080;2024-03-02T01:18:41;6.53;97.87
66343;DHT22;53144;51.524;5.080;2024-03-02T01:21:06;6.56;97.67
66343;DHT22;53144;51.524;5.080;2024-03-02T01:23:32;6.58;97.19
66343;DHT22;53144;51.524;5.080;2024-03-02T01:25:57;6.57;97.17
66343;DHT22;53144;51.524;5.080;2024-03-02T01:28:23;6.57;96.92
66343;DHT22;53144;51.524;5.080;2024-03-02T01:30:48;6.63;97.03
66343;DHT22;53144;51.524;5.080;2024-03-02T01:33:15;6.60;96.65
66343;DHT22;53144;51.524;5.080;2024-03-02T01:35:40;6.54;96.73
66343;DHT22;53144;51.524;5.080;2024-03-02T01:38:06;6.57;96.71
66343;DHT22;53144;51.524;5.080;2024-03-02T01:40:35;6.57;97.00
66343;DHT22;53144;51.524;5.080;2024-03-02T01:43:01;6.64;96.98
66343;DHT22;53144;51.524;5.080;2024-03-02T01:45:28;6.53;96.97
66343;DHT22;53144;51.524;5.080;2024-03-02T01:47:53;6.53;96.96
66343;DHT22;53144;51.524;5.080;2024-03-02T01:50:26;6.52;97.34
66343;DHT22;53144;51.524;5.080;2024-03-02T01:52:52;6.49;97.44
66343;DHT22;53144;51.524;5.080;2024-03-02T01:55:18;6.44;97.59
66343;DHT22;53144;51.524;5.080;2024-03-02T01:57:43;6.49;97.36
66343;DHT22;53144;51.524;5.080;2024-03-02T02:00:10;6.43;97.46
66343;DHT22;53144;51.524;5.080;2024-03-02T02:02:36;6.43;97.62
66343;DHT22;53144;51.524;5.080;2024-03-02T02:05:01;6.42;97.40
66343;DHT22;53144;51.524;5.080;2024-03-02T02:07:27;6.47;97.37
66343;DHT22;53144;51.524;5.080;2024-03-02T02:09:52;6.43;97.35
66343;DHT22;53144;51.524;5.080;2024-03-02T02:12:17;6.37;97.61
66343;DHT22;53144;51.524;5.080;2024-03-02T02:14:49;6.40;97.62
66343;DHT22;53144;51.524;5.080;2024-03-02T02:17:15;6.36;97.57
66343;DHT22;53144;51.524;5.080;2024-03-02T02:19:41;6.36;97.50
66343;DHT22;53144;51.524;5.080;2024-03-02T02:22:07;6.39;97.48
66343;DHT22;53144;51.524;5.080;2024-03-02T02:24:33;6.39;97.12
66343;DHT22;53144;51.524;5.080;2024-03-02T02:26:58;6.36;97.13
66343;DHT22;53144;51.524;5.080;2024-03-02T02:29:23;6.36;97.65
66343;DHT22;53144;51.524;5.080;2024-03-02T02:31:49;6.37;97.16
66343;DHT22;53144;51.524;5.080;2024-03-02T02:34:18;6.33;97.30
66343;DHT22;53144;51.524;5.080;2024-03-02T02:36:43;6.34;97.18
66343;DHT22;53144;51.524;5.080;2024-03-02T02:39:12;6.33;97.32
66343;DHT22;53144;51.524;5.080;2024-03-02T02:41:39;6.36;97.20
66343;DHT22;53144;51.524;5.080;2024-03-02T02:44:05;6.39;96.79
66343;DHT22;53144;51.524;5.080;2024-03-02T02:46:30;6.42;96.95
66343;DHT22;53144;51.524;5.080;2024-03-02T02:48:56;6.40;96.93
66343;DHT22;53144;51.524;5.080;2024-03-02T02:51:21;6.40;96.76
66343;DHT22;53144;51.524;5.080;2024-03-02T02:53:46;6.36;96.60
66343;DHT22;53144;51.524;5.080;2024-03-02T02:56:12;6.34;96.74
66343;DHT22;53144;51.524;5.080;2024-03-02T02:58:37;6.37;96.72
66343;DHT22;53144;51.524;5.080;2024-03-02T03:01:03;6.36;96.55
66343;DHT22;53144;51.524;5.080;2024-03-02T03:03:29;6.34;96.22
66343;DHT22;53144;51.524;5.080;2024-03-02T03:05:54;6.37;96.19
66343;DHT22;53144;51.524;5.080;2024-03-02T03:08:20;6.34;96.08
66343;DHT22;53144;51.524;5.080;2024-03-02T03:10:45;6.37;96.09
66343;DHT22;53144;51.524;5.080;2024-03-02T03:13:10;6.39;96.08
66343;DHT22;53144;51.524;5.080;2024-03-02T03:15:36;6.39;96.32
66343;DHT22;53144;51.524;5.080;2024-03-02T03:18:03;6.36;96.28
66343;DHT22;53144;51.524;5.080;2024-03-02T03:20:29;6.40;96.23
66343;DHT22;53144;51.524;5.080;2024-03-02T03:22:55;6.34;96.10
66343;DHT22;53144;51.524;5.080;2024-03-02T03:25:21;6.37;96.32
66343;DHT22;53144;51.524;5.080;2024-03-02T03:27:46;6.37;96.16
66343;DHT22;53144;51.524;5.080;2024-03-02T03:30:12;6.29;96.27
66343;DHT22;53144;51.524;5.080;2024-03-02T03:32:37;6.30;95.99
66343;DHT22;53144;51.524;5.080;2024-03-02T03:35:03;6.34;96.17
66343;DHT22;53144;51.524;5.080;2024-03-02T03:37:29;6.32;95.85
66343;DHT22;53144;51.524;5.080;2024-03-02T03:40:04;6.28;95.96
66343;DHT22;53144;51.524;5.080;2024-03-02T03:42:37;6.30;95.96
66343;DHT22;53144;51.524;5.080;2024-03-02T03:45:03;6.30;95.55
66343;DHT22;53144;51.524;5.080;2024-03-02T03:47:28;6.34;95.46
66343;DHT22;53144;51.524;5.080;2024-03-02T03:49:54;6.33;95.34
66343;DHT22;53144;51.524;5.080;2024-03-02T03:52:19;6.28;95.40
66343;DHT22;53144;51.524;5.080;2024-03-02T03:54:44;6.32;94.99
66343;DHT22;53144;51.524;5.080;2024-03-02T03:57:10;6.33;95.15
66343;DHT22;53144;51.524;5.080;2024-03-02T03:59:35;6.33;94.91
66343;DHT22;53144;51.524;5.080;2024-03-02T04:02:03;6.36;94.71
66343;DHT22;53144;51.524;5.080;2024-03-02T04:04:28;6.32;94.48
66343;DHT22;53144;51.524;5.080;2024-03-02T04:06:54;6.29;94.65
66343;DHT22;53144;51.524;5.080;2024-03-02T04:09:19;6.25;94.77
66343;DHT22;53144;51.524;5.080;2024-03-02T04:11:45;6.28;93.94
66343;DHT22;53144;51.524;5.080;2024-03-02T04:14:10;6.26;94.25
66343;DHT22;53144;51.524;5.080;2024-03-02T04:16:37;6.23;93.82
66343;DHT22;53144;51.524;5.080;2024-03-02T04:19:02;6.13;94.16
66343;DHT22;53144;51.524;5.080;2024-03-02T04:21:29;6.13;94.01
66343;DHT22;53144;51.524;5.080;2024-03-02T04:23:54;6.11;94.35
66343;DHT22;53144;51.524;5.080;2024-03-02T04:26:23;6.15;94.15
66343;DHT22;53144;51.524;5.080;2024-03-02T04:28:50;6.08;94.07
66343;DHT22;53144;51.524;5.080;2024-03-02T04:31:16;6.04;93.93
66343;DHT22;53144;51.524;5.080;2024-03-02T04:33:42;5.99;93.82
66343;DHT22;53144;51.524;5.080;2024-03-02T04:36:07;5.92;94.15
66343;DHT22;53144;51.524;5.080;2024-03-02T04:38:34;5.91;94.14
66343;DHT22;53144;51.524;5.080;2024-03-02T04:41:00;5.94;94.27
66343;DHT22;53144;51.524;5.080;2024-03-02T04:43:25;5.92;94.20
66343;DHT22;53144;51.524;5.080;2024-03-02T04:45:51;5.92;93.84
66343;DHT22;53144;51.524;5.080;2024-03-02T04:48:16;5.98;93.73
66343;DHT22;53144;51.524;5.080;2024-03-02T04:50:42;5.97;93.65
66343;DHT22;53144;51.524;5.080;2024-03-02T04:53:07;5.90;93.67
66343;DHT22;53144;51.524;5.080;2024-03-02T04:55:33;5.95;93.46
66343;DHT22;53144;51.524;5.080;2024-03-02T04:58:04;5.90;93.52
66343;DHT22;53144;51.524;5.080;2024-03-02T05:00:30;5.87;93.64
66343;DHT22;53144;51.524;5.080;2024-03-02T05:02:55;5.97;93.67
66343;DHT22;53144;51.524;5.080;2024-03-02T05:05:21;5.94;93.22
66343;DHT22;53144;51.524;5.080;2024-03-02T05:07:46;5.92;93.44
66343;DHT22;53144;51.524;5.080;2024-03-02T05:10:11;5.95;93.37
66343;DHT22;53144;51.524;5.080;2024-03-02T05:12:37;5.97;93.27
66343;DHT22;53144;51.524;5.080;2024-03-02T05:15:09;5.99;93.41
66343;DHT22;53144;51.524;5.080;2024-03-02T05:17:39;6.04;93.00
66343;DHT22;53144;51.524;5.080;2024-03-02T05:20:05;6.12;92.82
66343;DHT22;53144;51.524;5.080;2024-03-02T05:22:33;6.08;92.64
66343;DHT22;53144;51.524;5.080;2024-03-02T05:24:59;6.01;92.52
66343;DHT22;53144;51.524;5.080;2024-03-02T05:27:26;5.99;92.59
66343;DHT22;53144;51.524;5.080;2024-03-02T05:29:51;6.04;91.71
66343;DHT22;53144;51.524;5.080;2024-03-02T05:32:16;6.05;91.84
66343;DHT22;53144;51.524;5.080;2024-03-02T05:34:42;6.04;91.49
66343;DHT22;53144;51.524;5.080;2024-03-02T05:37:07;5.98;91.75
66343;DHT22;53144;51.524;5.080;2024-03-02T05:39:32;5.95;91.76
66343;DHT22;53144;51.524;5.080;2024-03-02T05:41:58;5.94;91.85
66343;DHT22;53144;51.524;5.080;2024-03-02T05:44:23;5.91;91.83
66343;DHT22;53144;51.524;5.080;2024-03-02T05:46:48;5.85;91.94
66343;DHT22;53144;51.524;5.080;2024-03-02T05:49:14;5.79;92.17
66343;DHT22;53144;51.524;5.080;2024-03-02T05:51:39;5.84;92.05
66343;DHT22;53144;51.524;5.080;2024-03-02T05:54:05;5.90;92.08
66343;DHT22;53144;51.524;5.080;2024-03-02T05:56:30;5.85;92.07
66343;DHT22;53144;51.524;5.080;2024-03-02T05:58:55;5.87;92.40
66343;DHT22;53144;51.524;5.080;2024-03-02T06:01:46;5.92;92.22
66343;DHT22;53144;51.524;5.080;2024-03-02T06:04:13;6.01;92.05
66343;DHT22;53144;51.524;5.080;2024-03-02T06:06:40;5.99;91.87
66343;DHT22;53144;51.524;5.080;2024-03-02T06:09:05;6.05;91.83
66343;DHT22;53144;51.524;5.080;2024-03-02T06:11:35;5.97;92.01
66343;DHT22;53144;51.524;5.080;2024-03-02T06:14:02;6.02;91.92
66343;DHT22;53144;51.524;5.080;2024-03-02T06:16:27;6.01;91.85
66343;DHT22;53144;51.524;5.080;2024-03-02T06:18:52;6.04;91.91
66343;DHT22;53144;51.524;5.080;2024-03-02T06:21:19;5.99;91.51
66343;DHT22;53144;51.524;5.080;2024-03-02T06:23:45;5.97;91.72
66343;DHT22;53144;51.524;5.080;2024-03-02T06:26:11;5.97;91.41
66343;DHT22;53144;51.524;5.080;2024-03-02T06:28:37;5.98;91.57
66343;DHT22;53144;51.524;5.080;2024-03-02T06:31:03;5.91;91.55
66343;DHT22;53144;51.524;5.080;2024-03-02T06:33:29;5.88;91.51
66343;DHT22;53144;51.524;5.080;2024-03-02T06:35:54;5.88;91.79
66343;DHT22;53144;51.524;5.080;2024-03-02T06:38:19;5.87;91.69
66343;DHT22;53144;51.524;5.080;2024-03-02T06:40:45;5.85;91.98
66343;DHT22;53144;51.524;5.080;2024-03-02T06:43:10;5.74;92.10
66343;DHT22;53144;51.524;5.080;2024-03-02T06:45:36;5.78;92.34
66343;DHT22;53144;51.524;5.080;2024-03-02T06:48:01;5.74;92.50
66343;DHT22;53144;51.524;5.080;2024-03-02T06:50:26;5.74;92.43
66343;DHT22;53144;51.524;5.080;2024-03-02T06:52:52;5.68;92.64
66343;DHT22;53144;51.524;5.080;2024-03-02T06:55:18;5.74;92.49
66343;DHT22;53144;51.524;5.080;2024-03-02T06:57:43;5.79;92.72
66343;DHT22;53144;51.524;5.080;2024-03-02T07:00:09;5.82;92.30
66343;DHT22;53144;51.524;5.080;2024-03-02T07:02:35;5.81;92.34
66343;DHT22;53144;51.524;5.080;2024-03-02T07:05:01;5.77;92.38
66343;DHT22;53144;51.524;5.080;2024-03-02T07:07:29;5.81;92.43
66343;DHT22;53144;51.524;5.080;2024-03-02T07:09:55;5.78;92.37
66343;DHT22;53144;51.524;5.080;2024-03-02T07:12:20;5.81;92.52
66343;DHT22;53144;51.524;5.080;2024-03-02T07:14:46;5.82;92.40
66343;DHT22;53144;51.524;5.080;2024-03-02T07:17:30;5.78;92.81
66343;DHT22;53144;51.524;5.080;2024-03-02T07:19:56;5.79;92.43
66343;DHT22;53144;51.524;5.080;2024-03-02T07:22:21;5.82;92.40
66343;DHT22;53144;51.524;5.080;2024-03-02T07:24:47;5.87;92.01
66343;DHT22;53144;51.524;5.080;2024-03-02T07:27:14;5.90;92.29
66343;DHT22;53144;51.524;5.080;2024-03-02T07:29:40;5.92;91.66
66343;DHT22;53144;51.524;5.080;2024-03-02T07:32:08;5.91;91.80
66343;DHT22;53144;51.524;5.080;2024-03-02T07:34:34;5.84;91.80
66343;DHT22;53144;51.524;5.080;2024-03-02T07:36:59;5.91;91.74
66343;DHT22;53144;51.524;5.080;2024-03-02T07:39:24;5.88;92.10
66343;DHT22;53144;51.524;5.080;2024-03-02T07:41:50;5.88;92.34
66343;DHT22;53144;51.524;5.080;2024-03-02T07:44:16;5.94;92.42
66343;DHT22;53144;51.524;5.080;2024-03-02T07:46:44;6.06;92.12
66343;DHT22;53144;51.524;5.080;2024-03-02T07:49:11;6.16;91.72
66343;DHT22;53144;51.524;5.080;2024-03-02T07:51:37;6.28;91.70
66343;DHT22;53144;51.524;5.080;2024-03-02T07:54:02;6.40;91.50
66343;DHT22;53144;51.524;5.080;2024-03-02T07:56:28;6.43;91.47
66343;DHT22;53144;51.524;5.080;2024-03-02T07:58:53;6.50;91.09
66343;DHT22;53144;51.524;5.080;2024-03-02T08:01:19;6.49;91.39
66343;DHT22;53144;51.524;5.080;2024-03-02T08:03:45;6.56;91.38
66343;DHT22;53144;51.524;5.080;2024-03-02T08:06:14;6.63;91.33
66343;DHT22;53144;51.524;5.080;2024-03-02T08:08:40;6.60;91.34
66343;DHT22;53144;51.524;5.080;2024-03-02T08:11:05;6.63;91.12
66343;DHT22;53144;51.524;5.080;2024-03-02T08:13:31;6.60;91.48
66343;DHT22;53144;51.524;5.080;2024-03-02T08:15:56;6.69;91.41
66343;DHT22;53144;51.524;5.080;2024-03-02T08:18:22;6.73;91.57
66343;DHT22;53144;51.524;5.080;2024-03-02T08:20:47;6.79;91.12
66343;DHT22;53144;51.524;5.080;2024-03-02T08:23:13;6.76;91.24
66343;DHT22;53144;51.524;5.080;2024-03-02T08:25:38;6.79;91.07
66343;DHT22;53144;51.524;5.080;2024-03-02T08:28:03;6.79;91.38
66343;DHT22;53144;51.524;5.080;2024-03-02T08:30:30;6.87;91.05
66343;DHT22;53144;51.524;5.080;2024-03-02T08:32:55;7.00;90.89
66343;DHT22;53144;51.524;5.080;2024-03-02T08:35:20;7.04;90.28
66343;DHT22;53144;51.524;5.080;2024-03-02T08:37:47;7.16;89.52
66343;DHT22;53144;51.524;5.080;2024-03-02T08:40:13;7.21;89.83
66343;DHT22;53144;51.524;5.080;2024-03-02T08:42:39;7.32;89.41
66343;DHT22;53144;51.524;5.080;2024-03-02T08:45:06;7.43;89.41
66343;DHT22;53144;51.524;5.080;2024-03-02T08:47:31;7.55;88.05
66343;DHT22;53144;51.524;5.080;2024-03-02T08:49:57;7.65;88.50
66343;DHT22;53144;51.524;5.080;2024-03-02T08:52:23;7.74;87.53
66343;DHT22;53144;51.524;5.080;2024-03-02T08:54:48;7.80;88.12
66343;DHT22;53144;51.524;5.080;2024-03-02T08:57:14;7.89;86.32
66343;DHT22;53144;51.524;5.080;2024-03-02T08:59:39;7.98;87.24
66343;DHT22;53144;51.524;5.080;2024-03-02T09:02:05;8.07;86.48
66343;DHT22;53144;51.524;5.080;2024-03-02T09:04:31;8.15;85.28
66343;DHT22;53144;51.524;5.080;2024-03-02T09:06:56;8.25;86.02
66343;DHT22;53144;51.524;5.080;2024-03-02T09:09:21;8.30;83.99
66343;DHT22;53144;51.524;5.080;2024-03-02T09:11:47;8.42;85.35
66343;DHT22;53144;51.524;5.080;2024-03-02T09:14:12;8.45;83.56
66343;DHT22;53144;51.524;5.080;2024-03-02T09:16:40;8.59;82.83
66343;DHT22;53144;51.524;5.080;2024-03-02T09:19:05;8.55;82.84
66343;DHT22;53144;51.524;5.080;2024-03-02T09:21:30;8.65;82.89
66343;DHT22;53144;51.524;5.080;2024-03-02T09:23:56;8.79;82.42
66343;DHT22;53144;51.524;5.080;2024-03-02T09:26:22;8.80;82.99
66343;DHT22;53144;51.524;5.080;2024-03-02T09:28:47;8.97;82.45
66343;DHT22;53144;51.524;5.080;2024-03-02T09:31:13;8.96;80.44
66343;DHT22;53144;51.524;5.080;2024-03-02T09:33:38;8.86;81.07
66343;DHT22;53144;51.524;5.080;2024-03-02T09:36:19;9.04;81.62
66343;DHT22;53144;51.524;5.080;2024-03-02T09:38:45;9.06;80.34
66343;DHT22;53144;51.524;5.080;2024-03-02T09:41:12;9.10;80.50
66343;DHT22;53144;51.524;5.080;2024-03-02T09:43:38;9.30;80.00
66343;DHT22;53144;51.524;5.080;2024-03-02T09:46:03;9.57;78.34
66343;DHT22;53144;51.524;5.080;2024-03-02T09:48:29;9.78;78.63
66343;DHT22;53144;51.524;5.080;2024-03-02T09:50:54;10.07;78.45
66343;DHT22;53144;51.524;5.080;2024-03-02T09:53:19;10.03;76.97
66343;DHT22;53144;51.524;5.080;2024-03-02T09:55:46;10.17;77.32
66343;DHT22;53144;51.524;5.080;2024-03-02T09:58:11;10.29;75.52
66343;DHT22;53144;51.524;5.080;2024-03-02T10:00:37;10.19;73.14
66343;DHT22;53144;51.524;5.080;2024-03-02T10:03:03;10.13;74.91
66343;DHT22;53144;51.524;5.080;2024-03-02T10:05:30;10.32;74.42
66343;DHT22;53144;51.524;5.080;2024-03-02T10:07:58;10.68;74.76
66343;DHT22;53144;51.524;5.080;2024-03-02T10:10:37;11.06;72.86
66343;DHT22;53144;51.524;5.080;2024-03-02T10:13:09;11.16;70.49
66343;DHT22;53144;51.524;5.080;2024-03-02T10:15:36;11.04;71.78
66343;DHT22;53144;51.524;5.080;2024-03-02T10:18:12;11.40;72.13
66343;DHT22;53144;51.524;5.080;2024-03-02T10:20:38;11.80;68.91
66343;DHT22;53144;51.524;5.080;2024-03-02T10:23:14;11.75;68.20
66343;DHT22;53144;51.524;5.080;2024-03-02T10:25:40;11.83;69.33
66343;DHT22;53144;51.524;5.080;2024-03-02T10:28:05;12.12;68.83
66343;DHT22;53144;51.524;5.080;2024-03-02T10:30:34;12.15;67.95
66343;DHT22;53144;51.524;5.080;2024-03-02T10:33:03;12.05;67.57
66343;DHT22;53144;51.524;5.080;2024-03-02T10:35:30;12.14;66.24
66343;DHT22;53144;51.524;5.080;2024-03-02T10:38:03;12.56;68.11
66343;DHT22;53144;51.524;5.080;2024-03-02T10:40:29;13.01;65.48
66343;DHT22;53144;51.524;5.080;2024-03-02T10:42:55;12.73;66.47
66343;DHT22;53144;51.524;5.080;2024-03-02T10:45:21;12.24;66.23
66343;DHT22;53144;51.524;5.080;2024-03-02T10:47:50;12.83;65.12
66343;DHT22;53144;51.524;5.080;2024-03-02T10:50:16;13.21;63.87
66343;DHT22;53144;51.524;5.080;2024-03-02T10:52:42;13.25;62.46
66343;DHT22;53144;51.524;5.080;2024-03-02T10:55:08;13.75;61.77
66343;DHT22;53144;51.524;5.080;2024-03-02T10:57:50;13.62;62.63
66343;DHT22;53144;51.524;5.080;2024-03-02T11:00:15;13.21;62.52
66343;DHT22;53144;51.524;5.080;2024-03-02T11:02:46;13.37;62.88
66343;DHT22;53144;51.524;5.080;2024-03-02T11:05:22;13.73;61.37
66343;DHT22;53144;51.524;5.080;2024-03-02T11:07:52;13.83;60.41
66343;DHT22;53144;51.524;5.080;2024-03-02T11:10:19;13.99;59.52
66343;DHT22;53144;51.524;5.080;2024-03-02T11:12:56;14.40;59.74
66343;DHT22;53144;51.524;5.080;2024-03-02T11:15:26;14.64;59.65
66343;DHT22;53144;51.524;5.080;2024-03-02T11:17:53;14.77;59.68
66343;DHT22;53144;51.524;5.080;2024-03-02T11:20:19;15.43;59.13
66343;DHT22;53144;51.524;5.080;2024-03-02T11:22:45;15.53;57.47
66343;DHT22;53144;51.524;5.080;2024-03-02T11:25:27;15.53;60.06
66343;DHT22;53144;51.524;5.080;2024-03-02T11:33:04;15.49;57.61
66343;DHT22;53144;51.524;5.080;2024-03-02T11:35:35;15.36;59.34
66343;DHT22;53144;51.524;5.080;2024-03-02T11:38:03;15.61;58.78
66343;DHT22;53144;51.524;5.080;2024-03-02T11:40:30;15.29;58.70
66343;DHT22;53144;51.524;5.080;2024-03-02T11:43:00;15.18;57.23
66343;DHT22;53144;51.524;5.080;2024-03-02T11:45:29;15.00;58.34
66343;DHT22;53144;51.524;5.080;2024-03-02T11:47:55;14.95;60.04
66343;DHT22;53144;51.524;5.080;2024-03-02T11:50:41;14.14;60.00
66343;DHT22;53144;51.524;5.080;2024-03-02T11:53:09;14.75;59.43
66343;DHT22;53144;51.524;5.080;2024-03-02T11:55:35;15.30;59.50
66343;DHT22;53144;51.524;5.080;2024-03-02T11:58:04;15.39;59.56
66343;DHT22;53144;51.524;5.080;2024-03-02T12:00:30;14.29;62.53
66343;DHT22;53144;51.524;5.080;2024-03-02T12:05:27;13.78;62.13
66343;DHT22;53144;51.524;5.080;2024-03-02T12:08:01;13.59;61.03
66343;DHT22;53144;51.524;5.080;2024-03-02T12:10:27;13.57;60.77
66343;DHT22;53144;51.524;5.080;2024-03-02T12:12:57;13.73;62.12
66343;DHT22;53144;51.524;5.080;2024-03-02T12:15:27;13.72;60.45
66343;DHT22;53144;51.524;5.080;2024-03-02T12:17:56;14.21;60.85
66343;DHT22;53144;51.524;5.080;2024-03-02T12:20:23;14.51;60.02
66343;DHT22;53144;51.524;5.080;2024-03-02T12:22:53;15.20;57.96
66343;DHT22;53144;51.524;5.080;2024-03-02T12:25:23;15.60;57.10
66343;DHT22;53144;51.524;5.080;2024-03-02T12:27:50;15.37;57.26
66343;DHT22;53144;51.524;5.080;2024-03-02T12:30:16;14.93;58.00
66343;DHT22;53144;51.524;5.080;2024-03-02T12:32:42;14.42;59.22
66343;DHT22;53144;51.524;5.080;2024-03-02T12:35:08;13.98;60.87
66343;DHT22;53144;51.524;5.080;2024-03-02T12:37:42;13.55;62.49
66343;DHT22;53144;51.524;5.080;2024-03-02T12:40:10;13.52;64.73
66343;DHT22;53144;51.524;5.080;2024-03-02T12:42:35;13.22;65.81
66343;DHT22;53144;51.524;5.080;2024-03-02T12:45:01;13.10;66.23
66343;DHT22;53144;51.524;5.080;2024-03-02T12:47:26;13.21;68.22
66343;DHT22;53144;51.524;5.080;2024-03-02T12:49:52;13.15;67.66
66343;DHT22;53144;51.524;5.080;2024-03-02T12:52:19;13.31;65.45
66343;DHT22;53144;51.524;5.080;2024-03-02T12:54:45;13.69;63.25
66343;DHT22;53144;51.524;5.080;2024-03-02T12:57:10;13.87;63.17
66343;DHT22;53144;51.524;5.080;2024-03-02T12:59:45;14.40;62.88
66343;DHT22;53144;51.524;5.080;2024-03-02T13:02:17;14.77;63.09
66343;DHT22;53144;51.524;5.080;2024-03-02T13:04:43;14.65;63.27
66343;DHT22;53144;51.524;5.080;2024-03-02T13:07:08;14.92;61.19
66343;DHT22;53144;51.524;5.080;2024-03-02T13:09:34;14.89;62.89
66343;DHT22;53144;51.524;5.080;2024-03-02T13:12:00;15.08;60.40
66343;DHT22;53144;51.524;5.080;2024-03-02T13:14:26;14.92;62.92
66343;DHT22;53144;51.524;5.080;2024-03-02T13:16:51;14.64;63.13
66343;DHT22;53144;51.524;5.080;2024-03-02T13:19:18;14.75;62.74
66343;DHT22;53144;51.524;5.080;2024-03-02T13:21:44;14.50;63.48
66343;DHT22;53144;51.524;5.080;2024-03-02T13:24:10;14.05;64.95
66343;DHT22;53144;51.524;5.080;2024-03-02T13:26:35;13.72;64.06
66343;DHT22;53144;51.524;5.080;2024-03-02T13:29:01;13.65;65.64
66343;DHT22;53144;51.524;5.080;2024-03-02T13:31:26;13.82;66.48
66343;DHT22;53144;51.524;5.080;2024-03-02T13:33:51;13.58;65.61
66343;DHT22;53144;51.524;5.080;2024-03-02T13:36:17;13.25;66.04
66343;DHT22;53144;51.524;5.080;2024-03-02T13:38:44;13.31;66.63
66343;DHT22;53144;51.524;5.080;2024-03-02T13:41:10;13.12;67.88
66343;DHT22;53144;51.524;5.080;2024-03-02T13:43:38;13.08;68.59
66343;DHT22;53144;51.524;5.080;2024-03-02T13:46:04;13.01;69.21
66343;DHT22;53144;51.524;5.080;2024-03-02T13:48:29;13.04;67.36
66343;DHT22;53144;51.524;5.080;2024-03-02T13:50:56;13.07;66.93
66343;DHT22;53144;51.524;5.080;2024-03-02T13:53:21;13.28;65.67
66343;DHT22;53144;51.524;5.080;2024-03-02T13:55:47;14.05;64.25
66343;DHT22;53144;51.524;5.080;2024-03-02T13:58:13;14.12;63.37
66343;DHT22;53144;51.524;5.080;2024-03-02T14:00:39;13.80;63.91
66343;DHT22;53144;51.524;5.080;2024-03-02T14:03:06;13.44;63.61
66343;DHT22;53144;51.524;5.080;2024-03-02T14:05:31;13.27;64.71
66343;DHT22;53144;51.524;5.080;2024-03-02T14:07:57;13.24;64.59
66343;DHT22;53144;51.524;5.080;2024-03-02T14:10:24;13.25;65.41
66343;DHT22;53144;51.524;5.080;2024-03-02T14:12:49;13.08;64.70
66343;DHT22;53144;51.524;5.080;2024-03-02T14:15:15;13.47;64.69
66343;DHT22;53144;51.524;5.080;2024-03-02T14:17:40;13.98;63.78
66343;DHT22;53144;51.524;5.080;2024-03-02T14:20:06;13.87;62.70
66343;DHT22;53144;51.524;5.080;2024-03-02T14:22:32;14.10;63.87
66343;DHT22;53144;51.524;5.080;2024-03-02T14:24:59;14.31;61.39
66343;DHT22;53144;51.524;5.080;2024-03-02T14:27:24;14.26;62.61
66343;DHT22;53144;51.524;5.080;2024-03-02T14:29:51;14.24;62.68
66343;DHT22;53144;51.524;5.080;2024-03-02T14:32:16;14.37;64.83
66343;DHT22;53144;51.524;5.080;2024-03-02T14:34:42;14.58;64.70
66343;DHT22;53144;51.524;5.080;2024-03-02T14:37:07;13.92;65.43
66343;DHT22;53144;51.524;5.080;2024-03-02T14:39:33;13.90;65.29
66343;DHT22;53144;51.524;5.080;2024-03-02T14:42:00;13.61;68.15
66343;DHT22;53144;51.524;5.080;2024-03-02T14:44:26;13.55;67.68
66343;DHT22;53144;51.524;5.080;2024-03-02T14:46:51;13.44;66.97
66343;DHT22;53144;51.524;5.080;2024-03-02T14:49:17;13.41;66.33
66343;DHT22;53144;51.524;5.080;2024-03-02T14:51:43;13.18;68.16
66343;DHT22;53144;51.524;5.080;2024-03-02T14:54:09;13.20;68.03
66343;DHT22;53144;51.524;5.080;2024-03-02T14:56:34;13.18;68.18
66343;DHT22;53144;51.524;5.080;2024-03-02T14:59:00;13.12;68.54
66343;DHT22;53144;51.524;5.080;2024-03-02T15:01:25;13.07;67.18
66343;DHT22;53144;51.524;5.080;2024-03-02T15:03:51;12.93;69.33
66343;DHT22;53144;51.524;5.080;2024-03-02T15:06:17;12.83;71.34
66343;DHT22;53144;51.524;5.080;2024-03-02T15:08:43;12.83;70.52
66343;DHT22;53144;51.524;5.080;2024-03-02T15:11:29;12.76;71.05
66343;DHT22;53144;51.524;5.080;2024-03-02T15:13:55;12.80;70.44
66343;DHT22;53144;51.524;5.080;2024-03-02T15:16:20;12.84;70.22
66343;DHT22;53144;51.524;5.080;2024-03-02T15:18:46;12.79;70.33
66343;DHT22;53144;51.524;5.080;2024-03-02T15:21:11;12.80;69.79
66343;DHT22;53144;51.524;5.080;2024-03-02T15:23:37;12.84;69.80
66343;DHT22;53144;51.524;5.080;2024-03-02T15:26:02;12.82;69.65
66343;DHT22;53144;51.524;5.080;2024-03-02T15:28:28;12.96;68.39
66343;DHT22;53144;51.524;5.080;2024-03-02T15:30:53;12.93;70.17
66343;DHT22;53144;51.524;5.080;2024-03-02T15:33:20;13.06;70.00
66343;DHT22;53144;51.524;5.080;2024-03-02T15:35:45;12.94;70.27
66343;DHT22;53144;51.524;5.080;2024-03-02T15:38:11;12.91;70.10
66343;DHT22;53144;51.524;5.080;2024-03-02T15:40:40;12.87;71.43
66343;DHT22;53144;51.524;5.080;2024-03-02T15:43:05;12.89;70.86